Portada
METAR-TAF:

METAR-TAF

Aeroports :

Jiddah, Aràbia Saudita

Aeroport de Jiddah Rei Abdulaziz

latitud: 21-42N, longitud: 039-11E, altitud: 15 m

Observació

L'informe es va fer fa 11 minuts, a les 20:00 UTC
Vent 5 kt del Nord/Nord-Oest
Temperatura 30°C
Humitat 59%
Pressió 1008 hPa
Visibilitat 10 km o més
sense núvols per sota de 1500 mi sense presència de cumulonimbus.

METAR: OEJN 202000Z 33005KT CAVOK 30/21 Q1008 NOSIG

Hora: 23:11 (20:11 UTC)

Pronòstic

L'informe es va fer fa 3 hores i 11 minuts, a les 17:00 UTC
Pronòstic vàlid del 20 a les 18 UTC al 21 a les 24 UTC
Vent 6 kt del Oest
Visibilitat: 7000 m
Escasses núvols a una alçada de 4000 ft
Evolucionant progressivament
l' 21 a les 06 UTC al 21 a les 08 UTC
Vent 8 kt del Oest amb ràfegues de 18 kt

TAF: OEJN 201700Z 2018/2124 28006KT 7000 FEW040 BECMG 2106/2108 27008G18KT

Observacions i pronòstics meteorològics de més de 4000 aeroports (METAR i TAF).

Les estacions disponibles són els punts grocs i vermells al mapa.

Posi el ratolí al punt desitjat per veure el nom de l'estació.

Feu clic per veure les observacions i els pronòstics meteorològics.

Per canviar el mapa: feu clic els botons verds amb una creu de color negre per apropar; al botó verd amb un guió per allunyar la imatge; o en les fletxes verdes per a mapes adjacents.


METAR-TAF: